Weather at Antonio Maceo International Airport

Public forecast

Using degrees Celsius for public forecast. Weather courtesy of forecast.io.

Current aviation weather report (METAR) for Antonio Maceo International Airport

Retrieved 2022/01/29 11:50 UTC (37 minutes ago):

MUCU 291150Z 01005KT 330V040 9000 FEW020 SCT060 23/17 Q1014

Aviation forecast (TAF) for Antonio Maceo International Airport

Retrieved 2022/01/29 12:03 UTC (24 minutes ago):

TAF MUCU 291100Z 2912/3012 VRB03KT 9000 SCT020 BECMG 2916/2917 35010KT TEMPO 2918/2924 5000 SHRA SCT018CB BKN020